sensor_id;sensor_type;location;lat;lon;timestamp;P1;durP1;ratioP1;P2;durP2;ratioP2
41275;SDS011;27010;47.718;12.912;2022-07-18T00:00:13;3.17;;;1.87;;
41275;SDS011;27010;47.718;12.912;2022-07-18T00:03:15;3.13;;;1.80;;
41275;SDS011;27010;47.718;12.912;2022-07-18T00:06:17;6.90;;;2.10;;
41275;SDS011;27010;47.718;12.912;2022-07-18T00:09:19;1.70;;;1.60;;
41275;SDS011;27010;47.718;12.912;2022-07-18T00:12:23;2.53;;;2.20;;
41275;SDS011;27010;47.718;12.912;2022-07-18T00:15:25;2.57;;;1.93;;
41275;SDS011;27010;47.718;12.912;2022-07-18T00:18:27;3.63;;;1.87;;
41275;SDS011;27010;47.718;12.912;2022-07-18T00:21:29;2.07;;;1.83;;
41275;SDS011;27010;47.718;12.912;2022-07-18T00:24:31;4.50;;;1.80;;
41275;SDS011;27010;47.718;12.912;2022-07-18T00:27:34;2.17;;;1.80;;
41275;SDS011;27010;47.718;12.912;2022-07-18T00:30:36;2.60;;;1.90;;
41275;SDS011;27010;47.718;12.912;2022-07-18T00:33:38;4.63;;;1.90;;
41275;SDS011;27010;47.718;12.912;2022-07-18T00:36:40;1.90;;;1.77;;
41275;SDS011;27010;47.718;12.912;2022-07-18T00:39:43;1.60;;;1.37;;
41275;SDS011;27010;47.718;12.912;2022-07-18T00:42:45;2.67;;;1.87;;
41275;SDS011;27010;47.718;12.912;2022-07-18T00:45:48;7.30;;;1.60;;
41275;SDS011;27010;47.718;12.912;2022-07-18T00:48:51;3.27;;;1.77;;
41275;SDS011;27010;47.718;12.912;2022-07-18T00:51:53;2.53;;;1.97;;
41275;SDS011;27010;47.718;12.912;2022-07-18T00:54:55;2.07;;;1.77;;
41275;SDS011;27010;47.718;12.912;2022-07-18T00:57:58;2.60;;;1.70;;
41275;SDS011;27010;47.718;12.912;2022-07-18T01:01:00;1.93;;;1.70;;
41275;SDS011;27010;47.718;12.912;2022-07-18T01:04:22;1.63;;;1.53;;
41275;SDS011;27010;47.718;12.912;2022-07-18T01:07:24;2.67;;;1.83;;
41275;SDS011;27010;47.718;12.912;2022-07-18T01:10:26;1.67;;;1.57;;
41275;SDS011;27010;47.718;12.912;2022-07-18T01:13:29;1.87;;;1.63;;
41275;SDS011;27010;47.718;12.912;2022-07-18T01:16:31;2.97;;;1.70;;
41275;SDS011;27010;47.718;12.912;2022-07-18T01:19:35;2.40;;;1.80;;
41275;SDS011;27010;47.718;12.912;2022-07-18T01:22:38;1.60;;;1.50;;
41275;SDS011;27010;47.718;12.912;2022-07-18T01:25:42;2.10;;;1.90;;
41275;SDS011;27010;47.718;12.912;2022-07-18T01:28:45;2.20;;;2.00;;
41275;SDS011;27010;47.718;12.912;2022-07-18T01:31:47;2.43;;;2.10;;
41275;SDS011;27010;47.718;12.912;2022-07-18T01:34:49;2.27;;;1.80;;
41275;SDS011;27010;47.718;12.912;2022-07-18T01:37:52;2.63;;;1.83;;
41275;SDS011;27010;47.718;12.912;2022-07-18T01:40:55;4.50;;;2.00;;
41275;SDS011;27010;47.718;12.912;2022-07-18T01:43:58;2.47;;;1.90;;
41275;SDS011;27010;47.718;12.912;2022-07-18T01:47:00;2.27;;;2.00;;
41275;SDS011;27010;47.718;12.912;2022-07-18T01:50:04;2.20;;;1.70;;
41275;SDS011;27010;47.718;12.912;2022-07-18T01:53:07;1.90;;;1.80;;
41275;SDS011;27010;47.718;12.912;2022-07-18T01:56:11;2.67;;;2.00;;
41275;SDS011;27010;47.718;12.912;2022-07-18T01:59:13;3.43;;;1.97;;
41275;SDS011;27010;47.718;12.912;2022-07-18T02:02:15;2.90;;;2.07;;
41275;SDS011;27010;47.718;12.912;2022-07-18T02:05:18;3.00;;;2.43;;
41275;SDS011;27010;47.718;12.912;2022-07-18T02:08:20;3.53;;;2.23;;
41275;SDS011;27010;47.718;12.912;2022-07-18T02:11:22;2.53;;;2.10;;
41275;SDS011;27010;47.718;12.912;2022-07-18T02:14:24;2.27;;;2.07;;
41275;SDS011;27010;47.718;12.912;2022-07-18T02:17:26;2.33;;;2.13;;
41275;SDS011;27010;47.718;12.912;2022-07-18T02:20:28;2.10;;;1.80;;
41275;SDS011;27010;47.718;12.912;2022-07-18T02:23:31;2.00;;;1.87;;
41275;SDS011;27010;47.718;12.912;2022-07-18T02:26:32;2.23;;;2.00;;
41275;SDS011;27010;47.718;12.912;2022-07-18T02:29:36;2.43;;;2.03;;
41275;SDS011;27010;47.718;12.912;2022-07-18T02:32:39;3.03;;;2.23;;
41275;SDS011;27010;47.718;12.912;2022-07-18T02:35:41;3.90;;;2.10;;
41275;SDS011;27010;47.718;12.912;2022-07-18T02:38:44;2.57;;;2.30;;
41275;SDS011;27010;47.718;12.912;2022-07-18T02:41:47;4.70;;;2.20;;
41275;SDS011;27010;47.718;12.912;2022-07-18T02:44:49;2.37;;;2.17;;
41275;SDS011;27010;47.718;12.912;2022-07-18T02:47:51;3.17;;;2.20;;
41275;SDS011;27010;47.718;12.912;2022-07-18T02:50:53;3.83;;;1.90;;
41275;SDS011;27010;47.718;12.912;2022-07-18T02:53:55;3.50;;;2.07;;
41275;SDS011;27010;47.718;12.912;2022-07-18T02:56:57;3.40;;;2.30;;
41275;SDS011;27010;47.718;12.912;2022-07-18T02:59:59;2.50;;;2.00;;
41275;SDS011;27010;47.718;12.912;2022-07-18T03:03:01;2.30;;;2.10;;
41275;SDS011;27010;47.718;12.912;2022-07-18T03:06:03;3.10;;;2.57;;
41275;SDS011;27010;47.718;12.912;2022-07-18T03:09:06;3.50;;;2.13;;
41275;SDS011;27010;47.718;12.912;2022-07-18T03:12:08;3.87;;;2.23;;
41275;SDS011;27010;47.718;12.912;2022-07-18T03:15:10;4.73;;;2.40;;
41275;SDS011;27010;47.718;12.912;2022-07-18T03:18:12;2.47;;;2.10;;
41275;SDS011;27010;47.718;12.912;2022-07-18T03:21:14;2.10;;;1.87;;
41275;SDS011;27010;47.718;12.912;2022-07-18T03:24:16;6.63;;;2.20;;
41275;SDS011;27010;47.718;12.912;2022-07-18T03:27:18;3.40;;;2.00;;
41275;SDS011;27010;47.718;12.912;2022-07-18T03:30:20;2.63;;;2.43;;
41275;SDS011;27010;47.718;12.912;2022-07-18T03:33:22;2.33;;;2.10;;
41275;SDS011;27010;47.718;12.912;2022-07-18T03:36:24;2.83;;;2.33;;
41275;SDS011;27010;47.718;12.912;2022-07-18T03:39:26;2.37;;;2.17;;
41275;SDS011;27010;47.718;12.912;2022-07-18T03:42:28;3.03;;;2.47;;
41275;SDS011;27010;47.718;12.912;2022-07-18T03:45:30;2.63;;;2.07;;
41275;SDS011;27010;47.718;12.912;2022-07-18T03:48:32;4.30;;;2.40;;
41275;SDS011;27010;47.718;12.912;2022-07-18T03:51:34;2.40;;;2.20;;
41275;SDS011;27010;47.718;12.912;2022-07-18T03:54:37;2.97;;;2.10;;
41275;SDS011;27010;47.718;12.912;2022-07-18T03:57:39;2.57;;;2.20;;
41275;SDS011;27010;47.718;12.912;2022-07-18T04:00:44;2.50;;;2.27;;
41275;SDS011;27010;47.718;12.912;2022-07-18T04:03:46;2.97;;;2.43;;
41275;SDS011;27010;47.718;12.912;2022-07-18T04:06:48;2.53;;;2.30;;
41275;SDS011;27010;47.718;12.912;2022-07-18T04:09:50;4.13;;;2.67;;
41275;SDS011;27010;47.718;12.912;2022-07-18T04:12:55;4.10;;;2.33;;
41275;SDS011;27010;47.718;12.912;2022-07-18T04:15:57;2.23;;;2.03;;
41275;SDS011;27010;47.718;12.912;2022-07-18T04:19:00;2.60;;;2.40;;
41275;SDS011;27010;47.718;12.912;2022-07-18T04:22:02;3.50;;;2.60;;
41275;SDS011;27010;47.718;12.912;2022-07-18T04:25:05;5.03;;;2.57;;
41275;SDS011;27010;47.718;12.912;2022-07-18T04:28:09;3.83;;;2.73;;
41275;SDS011;27010;47.718;12.912;2022-07-18T04:31:12;3.33;;;2.77;;
41275;SDS011;27010;47.718;12.912;2022-07-18T04:34:14;3.83;;;2.90;;
41275;SDS011;27010;47.718;12.912;2022-07-18T04:37:17;3.50;;;2.93;;
41275;SDS011;27010;47.718;12.912;2022-07-18T04:40:19;3.83;;;2.63;;
41275;SDS011;27010;47.718;12.912;2022-07-18T04:43:21;2.87;;;2.27;;
41275;SDS011;27010;47.718;12.912;2022-07-18T04:46:23;2.57;;;2.20;;
41275;SDS011;27010;47.718;12.912;2022-07-18T04:49:25;3.23;;;2.10;;
41275;SDS011;27010;47.718;12.912;2022-07-18T04:52:27;3.27;;;1.87;;
41275;SDS011;27010;47.718;12.912;2022-07-18T04:55:38;2.13;;;1.93;;
41275;SDS011;27010;47.718;12.912;2022-07-18T04:58:40;2.27;;;2.07;;
41275;SDS011;27010;47.718;12.912;2022-07-18T05:01:42;2.70;;;1.70;;
41275;SDS011;27010;47.718;12.912;2022-07-18T05:04:45;2.37;;;1.90;;
41275;SDS011;27010;47.718;12.912;2022-07-18T05:07:47;3.03;;;2.30;;
41275;SDS011;27010;47.718;12.912;2022-07-18T05:10:50;2.80;;;2.10;;
41275;SDS011;27010;47.718;12.912;2022-07-18T05:13:52;3.27;;;2.00;;
41275;SDS011;27010;47.718;12.912;2022-07-18T05:16:54;2.10;;;1.90;;
41275;SDS011;27010;47.718;12.912;2022-07-18T05:19:57;2.60;;;2.30;;
41275;SDS011;27010;47.718;12.912;2022-07-18T05:22:59;2.50;;;1.80;;
41275;SDS011;27010;47.718;12.912;2022-07-18T05:26:01;2.53;;;1.77;;
41275;SDS011;27010;47.718;12.912;2022-07-18T05:29:03;2.20;;;1.83;;
41275;SDS011;27010;47.718;12.912;2022-07-18T05:32:06;2.50;;;1.90;;
41275;SDS011;27010;47.718;12.912;2022-07-18T05:35:09;3.93;;;2.10;;
41275;SDS011;27010;47.718;12.912;2022-07-18T05:38:12;4.60;;;2.00;;
41275;SDS011;27010;47.718;12.912;2022-07-18T05:41:14;2.93;;;2.13;;
41275;SDS011;27010;47.718;12.912;2022-07-18T05:44:17;2.53;;;2.07;;
41275;SDS011;27010;47.718;12.912;2022-07-18T05:47:21;2.00;;;1.80;;
41275;SDS011;27010;47.718;12.912;2022-07-18T05:50:23;2.07;;;1.80;;
41275;SDS011;27010;47.718;12.912;2022-07-18T05:53:26;2.90;;;2.00;;
41275;SDS011;27010;47.718;12.912;2022-07-18T05:56:29;2.27;;;2.07;;
41275;SDS011;27010;47.718;12.912;2022-07-18T05:59:31;4.63;;;1.90;;
41275;SDS011;27010;47.718;12.912;2022-07-18T06:02:33;2.60;;;1.90;;
41275;SDS011;27010;47.718;12.912;2022-07-18T06:05:35;3.83;;;1.97;;
41275;SDS011;27010;47.718;12.912;2022-07-18T06:08:37;2.53;;;2.03;;
41275;SDS011;27010;47.718;12.912;2022-07-18T06:11:39;2.37;;;1.50;;
41275;SDS011;27010;47.718;12.912;2022-07-18T06:14:41;2.70;;;1.63;;
41275;SDS011;27010;47.718;12.912;2022-07-18T06:17:44;2.53;;;1.73;;
41275;SDS011;27010;47.718;12.912;2022-07-18T06:20:46;2.00;;;1.80;;
41275;SDS011;27010;47.718;12.912;2022-07-18T06:23:48;3.73;;;1.90;;
41275;SDS011;27010;47.718;12.912;2022-07-18T06:26:50;2.37;;;1.70;;
41275;SDS011;27010;47.718;12.912;2022-07-18T06:29:52;3.77;;;2.10;;
41275;SDS011;27010;47.718;12.912;2022-07-18T06:32:54;2.00;;;1.90;;
41275;SDS011;27010;47.718;12.912;2022-07-18T06:35:56;3.50;;;1.87;;
41275;SDS011;27010;47.718;12.912;2022-07-18T06:38:59;2.93;;;1.73;;
41275;SDS011;27010;47.718;12.912;2022-07-18T06:42:01;3.07;;;2.07;;
41275;SDS011;27010;47.718;12.912;2022-07-18T06:45:03;5.53;;;2.10;;
41275;SDS011;27010;47.718;12.912;2022-07-18T06:48:14;2.27;;;1.90;;
41275;SDS011;27010;47.718;12.912;2022-07-18T06:51:18;1.95;;;1.85;;
41275;SDS011;27010;47.718;12.912;2022-07-18T06:54:21;3.13;;;2.10;;
41275;SDS011;27010;47.718;12.912;2022-07-18T06:57:27;4.15;;;1.80;;
41275;SDS011;27010;47.718;12.912;2022-07-18T07:00:29;1.83;;;1.55;;
41275;SDS011;27010;47.718;12.912;2022-07-18T07:03:32;3.95;;;1.40;;
41275;SDS011;27010;47.718;12.912;2022-07-18T07:06:34;1.70;;;1.40;;
41275;SDS011;27010;47.718;12.912;2022-07-18T07:09:39;2.28;;;1.67;;
41275;SDS011;27010;47.718;12.912;2022-07-18T07:12:41;3.15;;;1.65;;
41275;SDS011;27010;47.718;12.912;2022-07-18T07:15:53;3.78;;;1.50;;
41275;SDS011;27010;47.718;12.912;2022-07-18T07:18:55;1.88;;;1.60;;
41275;SDS011;27010;47.718;12.912;2022-07-18T07:21:57;3.22;;;1.70;;
41275;SDS011;27010;47.718;12.912;2022-07-18T07:24:59;1.67;;;1.58;;
41275;SDS011;27010;47.718;12.912;2022-07-18T07:28:01;4.22;;;2.13;;
41275;SDS011;27010;47.718;12.912;2022-07-18T07:31:04;2.33;;;2.08;;
41275;SDS011;27010;47.718;12.912;2022-07-18T07:34:31;3.17;;;1.90;;
41275;SDS011;27010;47.718;12.912;2022-07-18T07:37:34;3.25;;;1.80;;
41275;SDS011;27010;47.718;12.912;2022-07-18T07:40:36;2.30;;;1.98;;
41275;SDS011;27010;47.718;12.912;2022-07-18T07:43:38;3.05;;;2.00;;
41275;SDS011;27010;47.718;12.912;2022-07-18T07:46:40;2.35;;;2.15;;
41275;SDS011;27010;47.718;12.912;2022-07-18T07:49:43;2.78;;;2.20;;
41275;SDS011;27010;47.718;12.912;2022-07-18T07:52:45;2.53;;;2.25;;
41275;SDS011;27010;47.718;12.912;2022-07-18T07:55:47;3.55;;;1.75;;
41275;SDS011;27010;47.718;12.912;2022-07-18T07:58:49;5.53;;;2.20;;
41275;SDS011;27010;47.718;12.912;2022-07-18T08:01:52;4.22;;;2.60;;
41275;SDS011;27010;47.718;12.912;2022-07-18T08:04:54;4.50;;;2.50;;
41275;SDS011;27010;47.718;12.912;2022-07-18T08:07:56;7.28;;;2.17;;
41275;SDS011;27010;47.718;12.912;2022-07-18T08:10:59;4.47;;;2.00;;
41275;SDS011;27010;47.718;12.912;2022-07-18T08:14:01;3.88;;;2.40;;
41275;SDS011;27010;47.718;12.912;2022-07-18T08:17:03;1.92;;;1.73;;
41275;SDS011;27010;47.718;12.912;2022-07-18T08:20:06;4.00;;;2.05;;
41275;SDS011;27010;47.718;12.912;2022-07-18T08:23:09;3.05;;;2.22;;
41275;SDS011;27010;47.718;12.912;2022-07-18T08:26:36;2.20;;;2.00;;
41275;SDS011;27010;47.718;12.912;2022-07-18T08:29:40;2.75;;;1.80;;
41275;SDS011;27010;47.718;12.912;2022-07-18T08:33:02;2.28;;;2.08;;
41275;SDS011;27010;47.718;12.912;2022-07-18T08:36:10;2.33;;;1.85;;
41275;SDS011;27010;47.718;12.912;2022-07-18T08:39:12;3.00;;;1.58;;
41275;SDS011;27010;47.718;12.912;2022-07-18T08:42:14;1.98;;;1.85;;
41275;SDS011;27010;47.718;12.912;2022-07-18T08:45:21;3.13;;;1.90;;
41275;SDS011;27010;47.718;12.912;2022-07-18T08:48:24;1.80;;;1.70;;
41275;SDS011;27010;47.718;12.912;2022-07-18T08:51:26;1.70;;;1.52;;
41275;SDS011;27010;47.718;12.912;2022-07-18T08:54:28;3.92;;;1.80;;
41275;SDS011;27010;47.718;12.912;2022-07-18T08:57:30;2.83;;;1.70;;
41275;SDS011;27010;47.718;12.912;2022-07-18T09:00:33;2.78;;;2.05;;
41275;SDS011;27010;47.718;12.912;2022-07-18T09:03:40;3.35;;;2.25;;
41275;SDS011;27010;47.718;12.912;2022-07-18T09:06:45;6.28;;;1.70;;
41275;SDS011;27010;47.718;12.912;2022-07-18T09:09:54;3.67;;;2.00;;
41275;SDS011;27010;47.718;12.912;2022-07-18T09:12:59;2.78;;;1.55;;
41275;SDS011;27010;47.718;12.912;2022-07-18T09:16:08;1.83;;;1.50;;
41275;SDS011;27010;47.718;12.912;2022-07-18T09:19:15;2.20;;;1.70;;
41275;SDS011;27010;47.718;12.912;2022-07-18T09:22:18;3.05;;;1.60;;
41275;SDS011;27010;47.718;12.912;2022-07-18T09:25:22;1.88;;;1.63;;
41275;SDS011;27010;47.718;12.912;2022-07-18T09:28:27;2.78;;;1.60;;
41275;SDS011;27010;47.718;12.912;2022-07-18T09:31:29;3.30;;;1.67;;
41275;SDS011;27010;47.718;12.912;2022-07-18T09:34:33;3.55;;;1.70;;
41275;SDS011;27010;47.718;12.912;2022-07-18T09:37:40;5.50;;;1.70;;
41275;SDS011;27010;47.718;12.912;2022-07-18T09:40:58;2.83;;;1.75;;
41275;SDS011;27010;47.718;12.912;2022-07-18T09:44:13;1.50;;;1.33;;
41275;SDS011;27010;47.718;12.912;2022-07-18T09:47:17;2.55;;;1.30;;
41275;SDS011;27010;47.718;12.912;2022-07-18T09:50:24;1.83;;;1.65;;
41275;SDS011;27010;47.718;12.912;2022-07-18T09:53:32;3.20;;;1.80;;
41275;SDS011;27010;47.718;12.912;2022-07-18T09:56:44;2.65;;;1.25;;
41275;SDS011;27010;47.718;12.912;2022-07-18T09:59:47;1.85;;;1.27;;
41275;SDS011;27010;47.718;12.912;2022-07-18T10:02:49;2.20;;;1.40;;
41275;SDS011;27010;47.718;12.912;2022-07-18T10:05:52;3.85;;;1.60;;
41275;SDS011;27010;47.718;12.912;2022-07-18T10:08:55;3.67;;;1.52;;
41275;SDS011;27010;47.718;12.912;2022-07-18T10:11:57;5.97;;;1.75;;
41275;SDS011;27010;47.718;12.912;2022-07-18T10:15:03;1.77;;;1.60;;
41275;SDS011;27010;47.718;12.912;2022-07-18T10:18:07;2.13;;;1.60;;
41275;SDS011;27010;47.718;12.912;2022-07-18T10:21:11;2.30;;;1.70;;
41275;SDS011;27010;47.718;12.912;2022-07-18T10:24:16;3.72;;;1.60;;
41275;SDS011;27010;47.718;12.912;2022-07-18T10:27:19;2.17;;;1.98;;
41275;SDS011;27010;47.718;12.912;2022-07-18T10:30:30;1.98;;;1.60;;
41275;SDS011;27010;47.718;12.912;2022-07-18T10:33:44;3.20;;;1.70;;
41275;SDS011;27010;47.718;12.912;2022-07-18T10:39:53;2.22;;;1.80;;
41275;SDS011;27010;47.718;12.912;2022-07-18T10:50:12;3.08;;;1.70;;
41275;SDS011;27010;47.718;12.912;2022-07-18T10:53:14;2.75;;;1.50;;
41275;SDS011;27010;47.718;12.912;2022-07-18T10:56:16;3.00;;;1.80;;
41275;SDS011;27010;47.718;12.912;2022-07-18T10:59:19;1.63;;;1.50;;
41275;SDS011;27010;47.718;12.912;2022-07-18T11:02:30;2.20;;;1.70;;
41275;SDS011;27010;47.718;12.912;2022-07-18T11:05:34;2.30;;;1.40;;
41275;SDS011;27010;47.718;12.912;2022-07-18T11:08:44;1.70;;;1.40;;
41275;SDS011;27010;47.718;12.912;2022-07-18T11:12:52;2.22;;;1.40;;
41275;SDS011;27010;47.718;12.912;2022-07-18T11:15:31;4.28;;;1.40;;
41275;SDS011;27010;47.718;12.912;2022-07-18T11:22:00;2.60;;;1.35;;
41275;SDS011;27010;47.718;12.912;2022-07-18T11:25:03;2.22;;;1.58;;
41275;SDS011;27010;47.718;12.912;2022-07-18T11:28:09;5.25;;;1.67;;
41275;SDS011;27010;47.718;12.912;2022-07-18T11:31:13;2.03;;;1.45;;
41275;SDS011;27010;47.718;12.912;2022-07-18T11:34:17;2.42;;;1.50;;
41275;SDS011;27010;47.718;12.912;2022-07-18T11:37:37;2.05;;;1.55;;
41275;SDS011;27010;47.718;12.912;2022-07-18T11:40:52;2.00;;;1.40;;
41275;SDS011;27010;47.718;12.912;2022-07-18T11:43:55;2.95;;;1.33;;
41275;SDS011;27010;47.718;12.912;2022-07-18T11:47:02;2.00;;;1.27;;
41275;SDS011;27010;47.718;12.912;2022-07-18T11:50:06;1.42;;;1.33;;
41275;SDS011;27010;47.718;12.912;2022-07-18T11:53:08;2.33;;;1.20;;
41275;SDS011;27010;47.718;12.912;2022-07-18T11:56:11;1.85;;;1.33;;
41275;SDS011;27010;47.718;12.912;2022-07-18T11:59:14;2.38;;;1.40;;
41275;SDS011;27010;47.718;12.912;2022-07-18T12:02:18;1.73;;;1.27;;
41275;SDS011;27010;47.718;12.912;2022-07-18T12:05:29;1.17;;;1.00;;
41275;SDS011;27010;47.718;12.912;2022-07-18T12:08:35;2.65;;;1.30;;
41275;SDS011;27010;47.718;12.912;2022-07-18T12:11:42;1.15;;;1.05;;
41275;SDS011;27010;47.718;12.912;2022-07-18T12:15:04;1.48;;;1.20;;
41275;SDS011;27010;47.718;12.912;2022-07-18T12:18:06;3.25;;;1.48;;
41275;SDS011;27010;47.718;12.912;2022-07-18T12:21:09;2.53;;;1.25;;
41275;SDS011;27010;47.718;12.912;2022-07-18T12:27:35;1.92;;;1.48;;
41275;SDS011;27010;47.718;12.912;2022-07-18T12:30:37;2.67;;;1.30;;
41275;SDS011;27010;47.718;12.912;2022-07-18T12:33:42;1.63;;;1.38;;
41275;SDS011;27010;47.718;12.912;2022-07-18T12:37:06;1.73;;;1.30;;
41275;SDS011;27010;47.718;12.912;2022-07-18T12:40:11;2.10;;;1.40;;
41275;SDS011;27010;47.718;12.912;2022-07-18T12:43:28;3.42;;;1.42;;
41275;SDS011;27010;47.718;12.912;2022-07-18T12:46:34;2.40;;;1.42;;
41275;SDS011;27010;47.718;12.912;2022-07-18T12:49:36;2.15;;;1.00;;
41275;SDS011;27010;47.718;12.912;2022-07-18T12:52:38;2.70;;;1.10;;
41275;SDS011;27010;47.718;12.912;2022-07-18T12:55:41;2.92;;;1.17;;
41275;SDS011;27010;47.718;12.912;2022-07-18T12:58:43;1.70;;;1.25;;
41275;SDS011;27010;47.718;12.912;2022-07-18T13:01:45;2.22;;;1.65;;
41275;SDS011;27010;47.718;12.912;2022-07-18T13:04:47;1.83;;;1.30;;
41275;SDS011;27010;47.718;12.912;2022-07-18T13:07:49;2.20;;;1.00;;
41275;SDS011;27010;47.718;12.912;2022-07-18T13:10:51;1.80;;;1.30;;
41275;SDS011;27010;47.718;12.912;2022-07-18T13:13:53;1.40;;;1.30;;
41275;SDS011;27010;47.718;12.912;2022-07-18T13:16:55;1.60;;;1.35;;
41275;SDS011;27010;47.718;12.912;2022-07-18T13:19:58;3.22;;;1.20;;
41275;SDS011;27010;47.718;12.912;2022-07-18T13:23:00;2.53;;;1.10;;
41275;SDS011;27010;47.718;12.912;2022-07-18T13:26:03;1.65;;;1.05;;
41275;SDS011;27010;47.718;12.912;2022-07-18T13:29:05;2.30;;;1.00;;
41275;SDS011;27010;47.718;12.912;2022-07-18T13:32:07;2.97;;;1.02;;
41275;SDS011;27010;47.718;12.912;2022-07-18T13:35:11;1.23;;;1.10;;
41275;SDS011;27010;47.718;12.912;2022-07-18T13:38:13;1.20;;;1.08;;
41275;SDS011;27010;47.718;12.912;2022-07-18T13:41:15;3.63;;;1.30;;
41275;SDS011;27010;47.718;12.912;2022-07-18T13:44:17;2.42;;;1.33;;
41275;SDS011;27010;47.718;12.912;2022-07-18T13:47:20;1.92;;;1.00;;
41275;SDS011;27010;47.718;12.912;2022-07-18T13:50:22;1.65;;;1.20;;
41275;SDS011;27010;47.718;12.912;2022-07-18T13:53:25;1.52;;;1.13;;
41275;SDS011;27010;47.718;12.912;2022-07-18T13:56:28;2.88;;;1.13;;
41275;SDS011;27010;47.718;12.912;2022-07-18T13:59:30;1.15;;;0.85;;
41275;SDS011;27010;47.718;12.912;2022-07-18T14:02:32;1.30;;;1.10;;
41275;SDS011;27010;47.718;12.912;2022-07-18T14:05:35;1.52;;;1.00;;
41275;SDS011;27010;47.718;12.912;2022-07-18T14:08:37;1.58;;;1.00;;
41275;SDS011;27010;47.718;12.912;2022-07-18T14:11:39;2.15;;;1.20;;
41275;SDS011;27010;47.718;12.912;2022-07-18T14:14:41;1.27;;;1.02;;
41275;SDS011;27010;47.718;12.912;2022-07-18T14:17:43;1.40;;;1.25;;
41275;SDS011;27010;47.718;12.912;2022-07-18T14:20:45;3.05;;;1.23;;
41275;SDS011;27010;47.718;12.912;2022-07-18T14:23:48;2.15;;;1.27;;
41275;SDS011;27010;47.718;12.912;2022-07-18T14:26:50;1.70;;;1.20;;
41275;SDS011;27010;47.718;12.912;2022-07-18T14:29:52;1.75;;;0.90;;
41275;SDS011;27010;47.718;12.912;2022-07-18T14:32:53;1.83;;;0.98;;
41275;SDS011;27010;47.718;12.912;2022-07-18T14:35:55;1.40;;;1.00;;
41275;SDS011;27010;47.718;12.912;2022-07-18T14:38:58;1.20;;;1.10;;
41275;SDS011;27010;47.718;12.912;2022-07-18T14:42:00;3.08;;;1.00;;
41275;SDS011;27010;47.718;12.912;2022-07-18T14:45:02;1.33;;;1.10;;
41275;SDS011;27010;47.718;12.912;2022-07-18T14:48:05;1.98;;;1.10;;
41275;SDS011;27010;47.718;12.912;2022-07-18T14:51:07;1.38;;;1.15;;
41275;SDS011;27010;47.718;12.912;2022-07-18T14:54:10;1.50;;;1.30;;
41275;SDS011;27010;47.718;12.912;2022-07-18T14:57:13;2.10;;;1.05;;
41275;SDS011;27010;47.718;12.912;2022-07-18T15:00:18;1.90;;;1.25;;
41275;SDS011;27010;47.718;12.912;2022-07-18T15:03:20;1.20;;;1.10;;
41275;SDS011;27010;47.718;12.912;2022-07-18T15:06:42;1.10;;;1.00;;
41275;SDS011;27010;47.718;12.912;2022-07-18T15:09:44;2.95;;;1.17;;
41275;SDS011;27010;47.718;12.912;2022-07-18T15:12:46;2.53;;;1.27;;
41275;SDS011;27010;47.718;12.912;2022-07-18T15:15:49;1.70;;;1.20;;
41275;SDS011;27010;47.718;12.912;2022-07-18T15:18:53;2.38;;;1.30;;
41275;SDS011;27010;47.718;12.912;2022-07-18T15:21:55;2.13;;;1.02;;
41275;SDS011;27010;47.718;12.912;2022-07-18T15:24:57;1.67;;;1.10;;
41275;SDS011;27010;47.718;12.912;2022-07-18T15:27:59;3.00;;;1.20;;
41275;SDS011;27010;47.718;12.912;2022-07-18T15:31:01;1.55;;;1.17;;
41275;SDS011;27010;47.718;12.912;2022-07-18T15:34:03;3.97;;;1.40;;
41275;SDS011;27010;47.718;12.912;2022-07-18T15:37:05;2.35;;;1.30;;
41275;SDS011;27010;47.718;12.912;2022-07-18T15:40:07;2.00;;;1.23;;
41275;SDS011;27010;47.718;12.912;2022-07-18T15:43:11;1.58;;;1.23;;
41275;SDS011;27010;47.718;12.912;2022-07-18T15:46:13;1.70;;;1.25;;
41275;SDS011;27010;47.718;12.912;2022-07-18T15:49:18;2.22;;;1.25;;
41275;SDS011;27010;47.718;12.912;2022-07-18T15:52:20;1.15;;;1.05;;
41275;SDS011;27010;47.718;12.912;2022-07-18T15:55:22;1.10;;;1.00;;
41275;SDS011;27010;47.718;12.912;2022-07-18T15:58:31;2.97;;;1.23;;
41275;SDS011;27010;47.718;12.912;2022-07-18T16:01:33;1.35;;;1.10;;
41275;SDS011;27010;47.718;12.912;2022-07-18T16:04:39;1.20;;;1.10;;
41275;SDS011;27010;47.718;12.912;2022-07-18T16:07:42;0.88;;;0.88;;
41275;SDS011;27010;47.718;12.912;2022-07-18T16:10:44;1.15;;;0.82;;
41275;SDS011;27010;47.718;12.912;2022-07-18T16:13:46;4.88;;;1.15;;
41275;SDS011;27010;47.718;12.912;2022-07-18T16:16:49;1.85;;;1.10;;
41275;SDS011;27010;47.718;12.912;2022-07-18T16:19:51;1.27;;;1.00;;
41275;SDS011;27010;47.718;12.912;2022-07-18T16:22:54;1.05;;;0.90;;
41275;SDS011;27010;47.718;12.912;2022-07-18T16:25:56;2.78;;;1.08;;
41275;SDS011;27010;47.718;12.912;2022-07-18T16:28:58;1.98;;;0.90;;
41275;SDS011;27010;47.718;12.912;2022-07-18T16:32:00;2.60;;;1.00;;
41275;SDS011;27010;47.718;12.912;2022-07-18T16:35:02;1.40;;;0.95;;
41275;SDS011;27010;47.718;12.912;2022-07-18T16:38:05;1.77;;;1.00;;
41275;SDS011;27010;47.718;12.912;2022-07-18T16:41:07;1.33;;;1.02;;
41275;SDS011;27010;47.718;12.912;2022-07-18T16:44:09;1.20;;;1.08;;
41275;SDS011;27010;47.718;12.912;2022-07-18T16:47:12;2.00;;;1.02;;
41275;SDS011;27010;47.718;12.912;2022-07-18T16:50:14;2.05;;;0.80;;
41275;SDS011;27010;47.718;12.912;2022-07-18T16:53:17;2.42;;;1.10;;
41275;SDS011;27010;47.718;12.912;2022-07-18T16:56:19;1.77;;;1.30;;
41275;SDS011;27010;47.718;12.912;2022-07-18T16:59:21;1.00;;;0.93;;
41275;SDS011;27010;47.718;12.912;2022-07-18T17:02:24;6.45;;;1.13;;
41275;SDS011;27010;47.718;12.912;2022-07-18T17:05:27;1.33;;;1.23;;
41275;SDS011;27010;47.718;12.912;2022-07-18T17:08:35;1.35;;;1.20;;
41275;SDS011;27010;47.718;12.912;2022-07-18T17:11:37;1.50;;;1.00;;
41275;SDS011;27010;47.718;12.912;2022-07-18T17:14:39;1.67;;;0.93;;
41275;SDS011;27010;47.718;12.912;2022-07-18T17:17:44;2.35;;;2.15;;
41275;SDS011;27010;47.718;12.912;2022-07-18T17:20:53;8.68;;;5.63;;
41275;SDS011;27010;47.718;12.912;2022-07-18T17:23:56;3.83;;;3.40;;
41275;SDS011;27010;47.718;12.912;2022-07-18T17:26:59;2.20;;;1.98;;
41275;SDS011;27010;47.718;12.912;2022-07-18T17:30:01;4.57;;;1.92;;
41275;SDS011;27010;47.718;12.912;2022-07-18T17:33:03;2.55;;;1.38;;
41275;SDS011;27010;47.718;12.912;2022-07-18T17:36:27;1.95;;;1.50;;
41275;SDS011;27010;47.718;12.912;2022-07-18T17:39:32;2.83;;;1.58;;
41275;SDS011;27010;47.718;12.912;2022-07-18T17:42:37;3.08;;;1.35;;
41275;SDS011;27010;47.718;12.912;2022-07-18T17:45:39;3.67;;;1.27;;
41275;SDS011;27010;47.718;12.912;2022-07-18T17:48:41;1.42;;;1.20;;
41275;SDS011;27010;47.718;12.912;2022-07-18T17:51:44;1.73;;;1.60;;
41275;SDS011;27010;47.718;12.912;2022-07-18T17:54:46;2.75;;;1.70;;
41275;SDS011;27010;47.718;12.912;2022-07-18T17:57:48;3.20;;;1.83;;
41275;SDS011;27010;47.718;12.912;2022-07-18T18:00:51;3.80;;;2.45;;
41275;SDS011;27010;47.718;12.912;2022-07-18T18:03:54;4.60;;;3.35;;
41275;SDS011;27010;47.718;12.912;2022-07-18T18:06:57;3.90;;;3.10;;
41275;SDS011;27010;47.718;12.912;2022-07-18T18:09:59;6.88;;;4.30;;
41275;SDS011;27010;47.718;12.912;2022-07-18T18:13:02;3.08;;;2.70;;
41275;SDS011;27010;47.718;12.912;2022-07-18T18:16:04;2.40;;;1.70;;
41275;SDS011;27010;47.718;12.912;2022-07-18T18:19:31;3.22;;;1.60;;
41275;SDS011;27010;47.718;12.912;2022-07-18T18:22:34;9.20;;;1.92;;
41275;SDS011;27010;47.718;12.912;2022-07-18T18:25:35;3.63;;;1.80;;